sensor_id;sensor_type;location;lat;lon;timestamp;P1;durP1;ratioP1;P2;durP2;ratioP2
74457;SDS011;62896;51.032;3.712;2024-02-26T00:00:52;6.9;;;3.2;;
74457;SDS011;62896;51.032;3.712;2024-02-26T00:04:12;6.9;;;3.2;;
74457;SDS011;62896;51.032;3.712;2024-02-26T00:07:32;6.9;;;3.2;;
74457;SDS011;62896;51.032;3.712;2024-02-26T00:10:52;6.9;;;3.2;;
74457;SDS011;62896;51.032;3.712;2024-02-26T00:14:12;6.9;;;3.2;;
74457;SDS011;62896;51.032;3.712;2024-02-26T00:17:32;6.9;;;3.2;;
74457;SDS011;62896;51.032;3.712;2024-02-26T00:20:52;6.9;;;3.2;;
74457;SDS011;62896;51.032;3.712;2024-02-26T00:24:12;2.4;;;1.3;;
74457;SDS011;62896;51.032;3.712;2024-02-26T00:27:32;2.4;;;1.3;;
74457;SDS011;62896;51.032;3.712;2024-02-26T00:30:52;2.4;;;1.3;;
74457;SDS011;62896;51.032;3.712;2024-02-26T00:34:12;2.4;;;1.3;;
74457;SDS011;62896;51.032;3.712;2024-02-26T00:37:32;2.4;;;1.3;;
74457;SDS011;62896;51.032;3.712;2024-02-26T00:40:52;2.4;;;1.3;;
74457;SDS011;62896;51.032;3.712;2024-02-26T00:44:12;2.4;;;1.3;;
74457;SDS011;62896;51.032;3.712;2024-02-26T00:47:32;3;;;1.2;;
74457;SDS011;62896;51.032;3.712;2024-02-26T00:50:52;3;;;1.2;;
74457;SDS011;62896;51.032;3.712;2024-02-26T00:54:12;3;;;1.2;;
74457;SDS011;62896;51.032;3.712;2024-02-26T00:57:32;3;;;1.2;;
74457;SDS011;62896;51.032;3.712;2024-02-26T01:00:52;3;;;1.2;;
74457;SDS011;62896;51.032;3.712;2024-02-26T01:04:12;3;;;1.2;;
74457;SDS011;62896;51.032;3.712;2024-02-26T01:07:32;3;;;1.2;;
74457;SDS011;62896;51.032;3.712;2024-02-26T01:10:52;3;;;1.2;;
74457;SDS011;62896;51.032;3.712;2024-02-26T01:14:12;3.2;;;1.1;;
74457;SDS011;62896;51.032;3.712;2024-02-26T01:17:32;3.2;;;1.1;;
74457;SDS011;62896;51.032;3.712;2024-02-26T01:20:52;3.2;;;1.1;;
74457;SDS011;62896;51.032;3.712;2024-02-26T01:24:12;3.2;;;1.1;;
74457;SDS011;62896;51.032;3.712;2024-02-26T01:27:32;3.2;;;1.1;;
74457;SDS011;62896;51.032;3.712;2024-02-26T01:30:52;3.2;;;1.1;;
74457;SDS011;62896;51.032;3.712;2024-02-26T01:34:12;3.2;;;1.1;;
74457;SDS011;62896;51.032;3.712;2024-02-26T01:37:32;2.9;;;1.1;;
74457;SDS011;62896;51.032;3.712;2024-02-26T01:40:52;2.9;;;1.1;;
74457;SDS011;62896;51.032;3.712;2024-02-26T01:44:12;2.9;;;1.1;;
74457;SDS011;62896;51.032;3.712;2024-02-26T01:47:32;2.9;;;1.1;;
74457;SDS011;62896;51.032;3.712;2024-02-26T01:50:52;2.9;;;1.1;;
74457;SDS011;62896;51.032;3.712;2024-02-26T01:54:12;2.9;;;1.1;;
74457;SDS011;62896;51.032;3.712;2024-02-26T01:57:32;2.9;;;1.1;;
74457;SDS011;62896;51.032;3.712;2024-02-26T02:00:52;2.9;;;1.1;;
74457;SDS011;62896;51.032;3.712;2024-02-26T02:04:12;2.3;;;1.3;;
74457;SDS011;62896;51.032;3.712;2024-02-26T02:07:32;2.3;;;1.3;;
74457;SDS011;62896;51.032;3.712;2024-02-26T02:10:52;2.3;;;1.3;;
74457;SDS011;62896;51.032;3.712;2024-02-26T02:14:12;2.3;;;1.3;;
74457;SDS011;62896;51.032;3.712;2024-02-26T02:17:32;2.3;;;1.3;;
74457;SDS011;62896;51.032;3.712;2024-02-26T02:20:53;2.3;;;1.3;;
74457;SDS011;62896;51.032;3.712;2024-02-26T02:24:12;2.3;;;1.3;;
74457;SDS011;62896;51.032;3.712;2024-02-26T02:27:32;2.5;;;1.4;;
74457;SDS011;62896;51.032;3.712;2024-02-26T02:30:52;2.5;;;1.4;;
74457;SDS011;62896;51.032;3.712;2024-02-26T02:34:12;2.5;;;1.4;;
74457;SDS011;62896;51.032;3.712;2024-02-26T02:37:32;2.5;;;1.4;;
74457;SDS011;62896;51.032;3.712;2024-02-26T02:40:52;2.5;;;1.4;;
74457;SDS011;62896;51.032;3.712;2024-02-26T02:44:12;2.5;;;1.4;;
74457;SDS011;62896;51.032;3.712;2024-02-26T02:47:32;2.5;;;1.4;;
74457;SDS011;62896;51.032;3.712;2024-02-26T02:50:52;2.5;;;1.4;;
74457;SDS011;62896;51.032;3.712;2024-02-26T02:54:12;3.2;;;1.5;;
74457;SDS011;62896;51.032;3.712;2024-02-26T02:57:32;3.2;;;1.5;;
74457;SDS011;62896;51.032;3.712;2024-02-26T03:00:52;3.2;;;1.5;;
74457;SDS011;62896;51.032;3.712;2024-02-26T03:04:12;3.2;;;1.5;;
74457;SDS011;62896;51.032;3.712;2024-02-26T03:07:32;3.2;;;1.5;;
74457;SDS011;62896;51.032;3.712;2024-02-26T03:10:52;3.2;;;1.5;;
74457;SDS011;62896;51.032;3.712;2024-02-26T03:14:12;3.2;;;1.5;;
74457;SDS011;62896;51.032;3.712;2024-02-26T03:17:32;3.8;;;2.1;;
74457;SDS011;62896;51.032;3.712;2024-02-26T03:20:52;3.8;;;2.1;;
74457;SDS011;62896;51.032;3.712;2024-02-26T03:24:12;3.8;;;2.1;;
74457;SDS011;62896;51.032;3.712;2024-02-26T03:27:32;3.8;;;2.1;;
74457;SDS011;62896;51.032;3.712;2024-02-26T03:30:52;3.8;;;2.1;;
74457;SDS011;62896;51.032;3.712;2024-02-26T03:34:12;3.8;;;2.1;;
74457;SDS011;62896;51.032;3.712;2024-02-26T03:37:32;3.8;;;2.1;;
74457;SDS011;62896;51.032;3.712;2024-02-26T03:40:52;3.8;;;2.1;;
74457;SDS011;62896;51.032;3.712;2024-02-26T03:44:12;4;;;3.1;;
74457;SDS011;62896;51.032;3.712;2024-02-26T03:47:32;4;;;3.1;;
74457;SDS011;62896;51.032;3.712;2024-02-26T03:50:52;4;;;3.1;;
74457;SDS011;62896;51.032;3.712;2024-02-26T03:54:12;4;;;3.1;;
74457;SDS011;62896;51.032;3.712;2024-02-26T03:57:32;4;;;3.1;;
74457;SDS011;62896;51.032;3.712;2024-02-26T04:00:52;4;;;3.1;;
74457;SDS011;62896;51.032;3.712;2024-02-26T04:04:12;4;;;3.1;;
74457;SDS011;62896;51.032;3.712;2024-02-26T04:07:32;5.3;;;4.2;;
74457;SDS011;62896;51.032;3.712;2024-02-26T04:10:52;5.3;;;4.2;;
74457;SDS011;62896;51.032;3.712;2024-02-26T04:14:12;5.3;;;4.2;;
74457;SDS011;62896;51.032;3.712;2024-02-26T04:17:32;5.3;;;4.2;;
74457;SDS011;62896;51.032;3.712;2024-02-26T04:20:52;5.3;;;4.2;;
74457;SDS011;62896;51.032;3.712;2024-02-26T04:24:12;5.3;;;4.2;;
74457;SDS011;62896;51.032;3.712;2024-02-26T04:27:32;5.3;;;4.2;;
74457;SDS011;62896;51.032;3.712;2024-02-26T04:30:52;5.3;;;4.2;;
74457;SDS011;62896;51.032;3.712;2024-02-26T04:34:12;6.4;;;5;;
74457;SDS011;62896;51.032;3.712;2024-02-26T04:37:32;6.4;;;5;;
74457;SDS011;62896;51.032;3.712;2024-02-26T04:40:52;6.4;;;5;;
74457;SDS011;62896;51.032;3.712;2024-02-26T04:44:12;6.4;;;5;;
74457;SDS011;62896;51.032;3.712;2024-02-26T04:47:32;6.4;;;5;;
74457;SDS011;62896;51.032;3.712;2024-02-26T04:50:52;6.4;;;5;;
74457;SDS011;62896;51.032;3.712;2024-02-26T04:54:12;6.4;;;5;;
74457;SDS011;62896;51.032;3.712;2024-02-26T04:57:32;7.4;;;5.5;;
74457;SDS011;62896;51.032;3.712;2024-02-26T05:00:52;7.4;;;5.5;;
74457;SDS011;62896;51.032;3.712;2024-02-26T05:04:12;7.4;;;5.5;;
74457;SDS011;62896;51.032;3.712;2024-02-26T05:07:32;7.4;;;5.5;;
74457;SDS011;62896;51.032;3.712;2024-02-26T05:10:52;7.4;;;5.5;;
74457;SDS011;62896;51.032;3.712;2024-02-26T05:14:12;7.4;;;5.5;;
74457;SDS011;62896;51.032;3.712;2024-02-26T05:17:32;7.4;;;5.5;;
74457;SDS011;62896;51.032;3.712;2024-02-26T05:20:52;7.4;;;5.5;;
74457;SDS011;62896;51.032;3.712;2024-02-26T05:24:12;5.3;;;4.3;;
74457;SDS011;62896;51.032;3.712;2024-02-26T05:27:32;5.3;;;4.3;;
74457;SDS011;62896;51.032;3.712;2024-02-26T05:30:52;5.3;;;4.3;;
74457;SDS011;62896;51.032;3.712;2024-02-26T05:34:12;5.3;;;4.3;;
74457;SDS011;62896;51.032;3.712;2024-02-26T05:37:32;5.3;;;4.3;;
74457;SDS011;62896;51.032;3.712;2024-02-26T05:40:52;5.3;;;4.3;;
74457;SDS011;62896;51.032;3.712;2024-02-26T05:44:12;5.3;;;4.3;;
74457;SDS011;62896;51.032;3.712;2024-02-26T05:47:32;6.8;;;4.3;;
74457;SDS011;62896;51.032;3.712;2024-02-26T05:50:52;6.8;;;4.3;;
74457;SDS011;62896;51.032;3.712;2024-02-26T05:54:12;6.8;;;4.3;;
74457;SDS011;62896;51.032;3.712;2024-02-26T05:57:32;6.8;;;4.3;;
74457;SDS011;62896;51.032;3.712;2024-02-26T06:00:52;6.8;;;4.3;;
74457;SDS011;62896;51.032;3.712;2024-02-26T06:04:12;6.8;;;4.3;;
74457;SDS011;62896;51.032;3.712;2024-02-26T06:07:32;6.8;;;4.3;;
74457;SDS011;62896;51.032;3.712;2024-02-26T06:10:52;6.8;;;4.3;;
74457;SDS011;62896;51.032;3.712;2024-02-26T06:14:12;4.9;;;4.4;;
74457;SDS011;62896;51.032;3.712;2024-02-26T06:17:32;4.9;;;4.4;;
74457;SDS011;62896;51.032;3.712;2024-02-26T06:20:52;4.9;;;4.4;;
74457;SDS011;62896;51.032;3.712;2024-02-26T06:24:12;4.9;;;4.4;;
74457;SDS011;62896;51.032;3.712;2024-02-26T06:27:32;4.9;;;4.4;;
74457;SDS011;62896;51.032;3.712;2024-02-26T06:30:52;4.9;;;4.4;;
74457;SDS011;62896;51.032;3.712;2024-02-26T06:34:12;4.9;;;4.4;;
74457;SDS011;62896;51.032;3.712;2024-02-26T06:37:32;6.1;;;5;;
74457;SDS011;62896;51.032;3.712;2024-02-26T06:40:52;6.1;;;5;;
74457;SDS011;62896;51.032;3.712;2024-02-26T06:44:12;6.1;;;5;;
74457;SDS011;62896;51.032;3.712;2024-02-26T06:47:32;6.1;;;5;;
74457;SDS011;62896;51.032;3.712;2024-02-26T06:50:52;6.1;;;5;;
74457;SDS011;62896;51.032;3.712;2024-02-26T06:54:12;6.1;;;5;;
74457;SDS011;62896;51.032;3.712;2024-02-26T06:57:32;6.1;;;5;;
74457;SDS011;62896;51.032;3.712;2024-02-26T07:00:52;6.1;;;5;;
74457;SDS011;62896;51.032;3.712;2024-02-26T07:04:12;6.6;;;4.5;;
74457;SDS011;62896;51.032;3.712;2024-02-26T07:07:32;6.6;;;4.5;;
74457;SDS011;62896;51.032;3.712;2024-02-26T07:10:52;6.6;;;4.5;;
74457;SDS011;62896;51.032;3.712;2024-02-26T07:14:12;6.6;;;4.5;;
74457;SDS011;62896;51.032;3.712;2024-02-26T07:17:32;6.6;;;4.5;;
74457;SDS011;62896;51.032;3.712;2024-02-26T07:20:52;6.6;;;4.5;;
74457;SDS011;62896;51.032;3.712;2024-02-26T07:24:12;6.6;;;4.5;;
74457;SDS011;62896;51.032;3.712;2024-02-26T07:27:32;7.3;;;4.4;;
74457;SDS011;62896;51.032;3.712;2024-02-26T07:30:52;7.3;;;4.4;;
74457;SDS011;62896;51.032;3.712;2024-02-26T07:34:12;7.3;;;4.4;;
74457;SDS011;62896;51.032;3.712;2024-02-26T07:37:32;7.3;;;4.4;;
74457;SDS011;62896;51.032;3.712;2024-02-26T07:40:52;7.3;;;4.4;;
74457;SDS011;62896;51.032;3.712;2024-02-26T07:44:12;7.3;;;4.4;;
74457;SDS011;62896;51.032;3.712;2024-02-26T07:47:32;7.3;;;4.4;;
74457;SDS011;62896;51.032;3.712;2024-02-26T07:50:52;7.3;;;4.4;;
74457;SDS011;62896;51.032;3.712;2024-02-26T07:54:12;5.1;;;4.1;;
74457;SDS011;62896;51.032;3.712;2024-02-26T07:57:32;5.1;;;4.1;;
74457;SDS011;62896;51.032;3.712;2024-02-26T08:00:52;5.1;;;4.1;;
74457;SDS011;62896;51.032;3.712;2024-02-26T08:04:12;5.1;;;4.1;;
74457;SDS011;62896;51.032;3.712;2024-02-26T08:07:32;5.1;;;4.1;;
74457;SDS011;62896;51.032;3.712;2024-02-26T08:10:52;5.1;;;4.1;;
74457;SDS011;62896;51.032;3.712;2024-02-26T08:14:12;5.1;;;4.1;;
74457;SDS011;62896;51.032;3.712;2024-02-26T08:17:32;4.9;;;4.1;;
74457;SDS011;62896;51.032;3.712;2024-02-26T08:20:52;4.9;;;4.1;;
74457;SDS011;62896;51.032;3.712;2024-02-26T08:24:12;4.9;;;4.1;;
74457;SDS011;62896;51.032;3.712;2024-02-26T08:27:32;4.9;;;4.1;;
74457;SDS011;62896;51.032;3.712;2024-02-26T08:30:52;4.9;;;4.1;;
74457;SDS011;62896;51.032;3.712;2024-02-26T08:34:12;4.9;;;4.1;;
74457;SDS011;62896;51.032;3.712;2024-02-26T08:37:32;4.9;;;4.1;;
74457;SDS011;62896;51.032;3.712;2024-02-26T08:40:52;4.9;;;4.1;;
74457;SDS011;62896;51.032;3.712;2024-02-26T08:44:12;4.9;;;3.7;;
74457;SDS011;62896;51.032;3.712;2024-02-26T08:47:32;4.9;;;3.7;;
74457;SDS011;62896;51.032;3.712;2024-02-26T08:50:52;4.9;;;3.7;;
74457;SDS011;62896;51.032;3.712;2024-02-26T08:54:12;4.9;;;3.7;;
74457;SDS011;62896;51.032;3.712;2024-02-26T08:57:32;4.9;;;3.7;;
74457;SDS011;62896;51.032;3.712;2024-02-26T09:00:52;4.9;;;3.7;;
74457;SDS011;62896;51.032;3.712;2024-02-26T09:04:12;4.9;;;3.7;;
74457;SDS011;62896;51.032;3.712;2024-02-26T09:07:32;6.3;;;4.6;;
74457;SDS011;62896;51.032;3.712;2024-02-26T09:10:52;6.3;;;4.6;;
74457;SDS011;62896;51.032;3.712;2024-02-26T09:14:12;6.3;;;4.6;;
74457;SDS011;62896;51.032;3.712;2024-02-26T09:17:32;6.3;;;4.6;;
74457;SDS011;62896;51.032;3.712;2024-02-26T09:20:52;6.3;;;4.6;;
74457;SDS011;62896;51.032;3.712;2024-02-26T09:24:12;6.3;;;4.6;;
74457;SDS011;62896;51.032;3.712;2024-02-26T09:27:32;6.3;;;4.6;;
74457;SDS011;62896;51.032;3.712;2024-02-26T09:30:52;6.3;;;4.6;;
74457;SDS011;62896;51.032;3.712;2024-02-26T09:34:12;9;;;5.8;;
74457;SDS011;62896;51.032;3.712;2024-02-26T09:37:32;9;;;5.8;;
74457;SDS011;62896;51.032;3.712;2024-02-26T09:40:52;9;;;5.8;;
74457;SDS011;62896;51.032;3.712;2024-02-26T09:44:12;9;;;5.8;;
74457;SDS011;62896;51.032;3.712;2024-02-26T09:47:32;9;;;5.8;;
74457;SDS011;62896;51.032;3.712;2024-02-26T09:50:52;9;;;5.8;;
74457;SDS011;62896;51.032;3.712;2024-02-26T09:54:12;9;;;5.8;;
74457;SDS011;62896;51.032;3.712;2024-02-26T09:57:32;7.8;;;5.9;;
74457;SDS011;62896;51.032;3.712;2024-02-26T10:00:53;7.8;;;5.9;;
74457;SDS011;62896;51.032;3.712;2024-02-26T10:04:12;7.8;;;5.9;;
74457;SDS011;62896;51.032;3.712;2024-02-26T10:07:32;7.8;;;5.9;;
74457;SDS011;62896;51.032;3.712;2024-02-26T10:10:52;7.8;;;5.9;;
74457;SDS011;62896;51.032;3.712;2024-02-26T10:14:12;7.8;;;5.9;;
74457;SDS011;62896;51.032;3.712;2024-02-26T10:17:32;7.8;;;5.9;;
74457;SDS011;62896;51.032;3.712;2024-02-26T10:21:01;7.8;;;5.9;;
74457;SDS011;62896;51.032;3.712;2024-02-26T10:24:13;9.8;;;6.5;;
74457;SDS011;62896;51.032;3.712;2024-02-26T10:27:32;9.8;;;6.5;;
74457;SDS011;62896;51.032;3.712;2024-02-26T10:30:52;9.8;;;6.5;;
74457;SDS011;62896;51.032;3.712;2024-02-26T10:34:12;9.8;;;6.5;;
74457;SDS011;62896;51.032;3.712;2024-02-26T10:37:32;9.8;;;6.5;;
74457;SDS011;62896;51.032;3.712;2024-02-26T10:40:52;9.8;;;6.5;;
74457;SDS011;62896;51.032;3.712;2024-02-26T10:44:12;9.8;;;6.5;;
74457;SDS011;62896;51.032;3.712;2024-02-26T10:47:32;10.8;;;7.4;;
74457;SDS011;62896;51.032;3.712;2024-02-26T10:50:52;10.8;;;7.4;;
74457;SDS011;62896;51.032;3.712;2024-02-26T10:54:12;10.8;;;7.4;;
74457;SDS011;62896;51.032;3.712;2024-02-26T10:57:33;10.8;;;7.4;;
74457;SDS011;62896;51.032;3.712;2024-02-26T11:00:52;10.8;;;7.4;;
74457;SDS011;62896;51.032;3.712;2024-02-26T11:04:12;10.8;;;7.4;;
74457;SDS011;62896;51.032;3.712;2024-02-26T11:07:32;10.8;;;7.4;;
74457;SDS011;62896;51.032;3.712;2024-02-26T11:10:52;10.8;;;7.4;;
74457;SDS011;62896;51.032;3.712;2024-02-26T11:14:12;10.5;;;7;;
74457;SDS011;62896;51.032;3.712;2024-02-26T11:17:32;10.5;;;7;;
74457;SDS011;62896;51.032;3.712;2024-02-26T11:20:52;10.5;;;7;;
74457;SDS011;62896;51.032;3.712;2024-02-26T11:24:12;10.5;;;7;;
74457;SDS011;62896;51.032;3.712;2024-02-26T11:27:33;10.5;;;7;;
74457;SDS011;62896;51.032;3.712;2024-02-26T11:30:52;10.5;;;7;;
74457;SDS011;62896;51.032;3.712;2024-02-26T11:34:12;10.5;;;7;;
74457;SDS011;62896;51.032;3.712;2024-02-26T11:37:32;16;;;10.6;;
74457;SDS011;62896;51.032;3.712;2024-02-26T11:40:52;16;;;10.6;;
74457;SDS011;62896;51.032;3.712;2024-02-26T11:44:12;16;;;10.6;;
74457;SDS011;62896;51.032;3.712;2024-02-26T11:47:32;16;;;10.6;;
74457;SDS011;62896;51.032;3.712;2024-02-26T11:50:52;16;;;10.6;;
74457;SDS011;62896;51.032;3.712;2024-02-26T11:54:12;16;;;10.6;;
74457;SDS011;62896;51.032;3.712;2024-02-26T11:57:37;16;;;10.6;;
74457;SDS011;62896;51.032;3.712;2024-02-26T12:00:52;16;;;10.6;;
74457;SDS011;62896;51.032;3.712;2024-02-26T12:04:13;14;;;9.7;;
74457;SDS011;62896;51.032;3.712;2024-02-26T12:07:33;14;;;9.7;;
74457;SDS011;62896;51.032;3.712;2024-02-26T12:10:52;14;;;9.7;;
74457;SDS011;62896;51.032;3.712;2024-02-26T12:14:12;14;;;9.7;;
74457;SDS011;62896;51.032;3.712;2024-02-26T12:17:32;14;;;9.7;;
74457;SDS011;62896;51.032;3.712;2024-02-26T12:20:57;14;;;9.7;;
74457;SDS011;62896;51.032;3.712;2024-02-26T12:24:14;14;;;9.7;;
74457;SDS011;62896;51.032;3.712;2024-02-26T12:27:32;11;;;8.1;;
74457;SDS011;62896;51.032;3.712;2024-02-26T12:30:52;11;;;8.1;;
74457;SDS011;62896;51.032;3.712;2024-02-26T12:34:12;11;;;8.1;;
74457;SDS011;62896;51.032;3.712;2024-02-26T12:37:32;11;;;8.1;;
74457;SDS011;62896;51.032;3.712;2024-02-26T12:40:52;11;;;8.1;;
74457;SDS011;62896;51.032;3.712;2024-02-26T12:44:12;11;;;8.1;;
74457;SDS011;62896;51.032;3.712;2024-02-26T12:47:32;11;;;8.1;;
74457;SDS011;62896;51.032;3.712;2024-02-26T12:50:52;11;;;8.1;;
74457;SDS011;62896;51.032;3.712;2024-02-26T12:54:12;8.7;;;5.8;;
74457;SDS011;62896;51.032;3.712;2024-02-26T12:57:32;8.7;;;5.8;;
74457;SDS011;62896;51.032;3.712;2024-02-26T13:00:52;8.7;;;5.8;;
74457;SDS011;62896;51.032;3.712;2024-02-26T13:04:12;8.7;;;5.8;;
74457;SDS011;62896;51.032;3.712;2024-02-26T13:07:32;8.7;;;5.8;;
74457;SDS011;62896;51.032;3.712;2024-02-26T13:10:52;8.7;;;5.8;;
74457;SDS011;62896;51.032;3.712;2024-02-26T13:14:18;8.7;;;5.8;;
74457;SDS011;62896;51.032;3.712;2024-02-26T13:17:32;7.3;;;5.3;;
74457;SDS011;62896;51.032;3.712;2024-02-26T13:20:52;7.3;;;5.3;;
74457;SDS011;62896;51.032;3.712;2024-02-26T13:24:12;7.3;;;5.3;;
74457;SDS011;62896;51.032;3.712;2024-02-26T13:27:32;7.3;;;5.3;;
74457;SDS011;62896;51.032;3.712;2024-02-26T13:30:52;7.3;;;5.3;;
74457;SDS011;62896;51.032;3.712;2024-02-26T13:34:22;7.3;;;5.3;;
74457;SDS011;62896;51.032;3.712;2024-02-26T13:37:32;7.3;;;5.3;;
74457;SDS011;62896;51.032;3.712;2024-02-26T13:40:52;7.3;;;5.3;;
74457;SDS011;62896;51.032;3.712;2024-02-26T13:44:12;6;;;4.7;;
74457;SDS011;62896;51.032;3.712;2024-02-26T13:47:32;6;;;4.7;;
74457;SDS011;62896;51.032;3.712;2024-02-26T13:50:52;6;;;4.7;;
74457;SDS011;62896;51.032;3.712;2024-02-26T13:54:12;6;;;4.7;;
74457;SDS011;62896;51.032;3.712;2024-02-26T13:57:32;6;;;4.7;;
74457;SDS011;62896;51.032;3.712;2024-02-26T14:00:52;6;;;4.7;;
74457;SDS011;62896;51.032;3.712;2024-02-26T14:04:12;6;;;4.7;;
74457;SDS011;62896;51.032;3.712;2024-02-26T14:07:32;6.8;;;5.1;;
74457;SDS011;62896;51.032;3.712;2024-02-26T14:10:52;6.8;;;5.1;;
74457;SDS011;62896;51.032;3.712;2024-02-26T14:14:12;6.8;;;5.1;;
74457;SDS011;62896;51.032;3.712;2024-02-26T14:17:32;6.8;;;5.1;;
74457;SDS011;62896;51.032;3.712;2024-02-26T14:20:52;6.8;;;5.1;;
74457;SDS011;62896;51.032;3.712;2024-02-26T14:24:12;6.8;;;5.1;;
74457;SDS011;62896;51.032;3.712;2024-02-26T14:27:32;6.8;;;5.1;;
74457;SDS011;62896;51.032;3.712;2024-02-26T14:30:52;6.8;;;5.1;;
74457;SDS011;62896;51.032;3.712;2024-02-26T14:34:12;5.4;;;4.3;;
74457;SDS011;62896;51.032;3.712;2024-02-26T14:37:32;5.4;;;4.3;;
74457;SDS011;62896;51.032;3.712;2024-02-26T14:40:52;5.4;;;4.3;;
74457;SDS011;62896;51.032;3.712;2024-02-26T14:44:12;5.4;;;4.3;;
74457;SDS011;62896;51.032;3.712;2024-02-26T14:47:32;5.4;;;4.3;;
74457;SDS011;62896;51.032;3.712;2024-02-26T14:50:52;5.4;;;4.3;;
74457;SDS011;62896;51.032;3.712;2024-02-26T14:54:12;5.4;;;4.3;;
74457;SDS011;62896;51.032;3.712;2024-02-26T14:57:32;7.1;;;5.2;;
74457;SDS011;62896;51.032;3.712;2024-02-26T15:00:52;7.1;;;5.2;;
74457;SDS011;62896;51.032;3.712;2024-02-26T15:04:12;7.1;;;5.2;;
74457;SDS011;62896;51.032;3.712;2024-02-26T15:07:32;7.1;;;5.2;;
74457;SDS011;62896;51.032;3.712;2024-02-26T15:10:52;7.1;;;5.2;;
74457;SDS011;62896;51.032;3.712;2024-02-26T15:14:12;7.1;;;5.2;;
74457;SDS011;62896;51.032;3.712;2024-02-26T15:17:32;7.1;;;5.2;;
74457;SDS011;62896;51.032;3.712;2024-02-26T15:20:52;7.1;;;5.2;;
74457;SDS011;62896;51.032;3.712;2024-02-26T15:24:12;7.7;;;5.1;;
74457;SDS011;62896;51.032;3.712;2024-02-26T15:27:32;7.7;;;5.1;;
74457;SDS011;62896;51.032;3.712;2024-02-26T15:30:52;7.7;;;5.1;;
74457;SDS011;62896;51.032;3.712;2024-02-26T15:34:12;7.7;;;5.1;;
74457;SDS011;62896;51.032;3.712;2024-02-26T15:37:32;7.7;;;5.1;;
74457;SDS011;62896;51.032;3.712;2024-02-26T15:40:52;7.7;;;5.1;;
74457;SDS011;62896;51.032;3.712;2024-02-26T15:44:12;7.7;;;5.1;;
74457;SDS011;62896;51.032;3.712;2024-02-26T15:47:32;9.2;;;6.5;;
74457;SDS011;62896;51.032;3.712;2024-02-26T15:50:52;9.2;;;6.5;;
74457;SDS011;62896;51.032;3.712;2024-02-26T15:54:12;9.2;;;6.5;;
74457;SDS011;62896;51.032;3.712;2024-02-26T15:57:32;9.2;;;6.5;;
74457;SDS011;62896;51.032;3.712;2024-02-26T16:00:52;9.2;;;6.5;;
74457;SDS011;62896;51.032;3.712;2024-02-26T16:04:12;9.2;;;6.5;;
74457;SDS011;62896;51.032;3.712;2024-02-26T16:07:34;9.2;;;6.5;;
74457;SDS011;62896;51.032;3.712;2024-02-26T16:10:52;9.2;;;6.5;;
74457;SDS011;62896;51.032;3.712;2024-02-26T16:14:13;9.1;;;6.2;;
74457;SDS011;62896;51.032;3.712;2024-02-26T16:17:33;9.1;;;6.2;;
74457;SDS011;62896;51.032;3.712;2024-02-26T16:20:52;9.1;;;6.2;;
74457;SDS011;62896;51.032;3.712;2024-02-26T16:24:12;9.1;;;6.2;;
74457;SDS011;62896;51.032;3.712;2024-02-26T16:27:32;9.1;;;6.2;;
74457;SDS011;62896;51.032;3.712;2024-02-26T16:30:52;9.1;;;6.2;;
74457;SDS011;62896;51.032;3.712;2024-02-26T16:34:12;9.1;;;6.2;;
74457;SDS011;62896;51.032;3.712;2024-02-26T16:37:33;8.1;;;6.2;;
74457;SDS011;62896;51.032;3.712;2024-02-26T16:40:52;8.1;;;6.2;;
74457;SDS011;62896;51.032;3.712;2024-02-26T16:44:12;8.1;;;6.2;;
74457;SDS011;62896;51.032;3.712;2024-02-26T16:47:32;8.1;;;6.2;;
74457;SDS011;62896;51.032;3.712;2024-02-26T16:50:52;8.1;;;6.2;;
74457;SDS011;62896;51.032;3.712;2024-02-26T16:54:12;8.1;;;6.2;;
74457;SDS011;62896;51.032;3.712;2024-02-26T16:57:32;8.1;;;6.2;;
74457;SDS011;62896;51.032;3.712;2024-02-26T17:00:52;8.1;;;6.2;;
74457;SDS011;62896;51.032;3.712;2024-02-26T17:04:12;6.8;;;5.1;;
74457;SDS011;62896;51.032;3.712;2024-02-26T17:07:32;6.8;;;5.1;;
74457;SDS011;62896;51.032;3.712;2024-02-26T17:10:53;6.8;;;5.1;;
74457;SDS011;62896;51.032;3.712;2024-02-26T17:14:12;6.8;;;5.1;;
74457;SDS011;62896;51.032;3.712;2024-02-26T17:17:33;6.8;;;5.1;;
74457;SDS011;62896;51.032;3.712;2024-02-26T17:20:52;6.8;;;5.1;;
74457;SDS011;62896;51.032;3.712;2024-02-26T17:24:12;6.8;;;5.1;;
74457;SDS011;62896;51.032;3.712;2024-02-26T17:27:32;5.5;;;3.9;;
74457;SDS011;62896;51.032;3.712;2024-02-26T17:30:52;5.5;;;3.9;;
74457;SDS011;62896;51.032;3.712;2024-02-26T17:34:12;5.5;;;3.9;;
74457;SDS011;62896;51.032;3.712;2024-02-26T17:37:32;5.5;;;3.9;;
74457;SDS011;62896;51.032;3.712;2024-02-26T17:40:52;5.5;;;3.9;;
74457;SDS011;62896;51.032;3.712;2024-02-26T17:44:12;5.5;;;3.9;;
74457;SDS011;62896;51.032;3.712;2024-02-26T17:47:32;5.5;;;3.9;;
74457;SDS011;62896;51.032;3.712;2024-02-26T17:50:52;5.5;;;3.9;;
74457;SDS011;62896;51.032;3.712;2024-02-26T17:54:12;5.8;;;3.4;;
74457;SDS011;62896;51.032;3.712;2024-02-26T17:57:32;5.8;;;3.4;;
74457;SDS011;62896;51.032;3.712;2024-02-26T18:00:52;5.8;;;3.4;;
74457;SDS011;62896;51.032;3.712;2024-02-26T18:04:12;5.8;;;3.4;;
74457;SDS011;62896;51.032;3.712;2024-02-26T18:07:32;5.8;;;3.4;;
74457;SDS011;62896;51.032;3.712;2024-02-26T18:10:52;5.8;;;3.4;;
74457;SDS011;62896;51.032;3.712;2024-02-26T18:14:12;5.8;;;3.4;;
74457;SDS011;62896;51.032;3.712;2024-02-26T18:17:32;5.6;;;3.6;;
74457;SDS011;62896;51.032;3.712;2024-02-26T18:20:52;5.6;;;3.6;;
74457;SDS011;62896;51.032;3.712;2024-02-26T18:24:12;5.6;;;3.6;;
74457;SDS011;62896;51.032;3.712;2024-02-26T18:27:32;5.6;;;3.6;;
74457;SDS011;62896;51.032;3.712;2024-02-26T18:30:52;5.6;;;3.6;;
74457;SDS011;62896;51.032;3.712;2024-02-26T18:34:12;5.6;;;3.6;;
74457;SDS011;62896;51.032;3.712;2024-02-26T18:37:32;5.6;;;3.6;;
74457;SDS011;62896;51.032;3.712;2024-02-26T18:40:52;5.6;;;3.6;;
74457;SDS011;62896;51.032;3.712;2024-02-26T18:44:12;7.3;;;4.2;;
74457;SDS011;62896;51.032;3.712;2024-02-26T18:47:32;7.3;;;4.2;;
74457;SDS011;62896;51.032;3.712;2024-02-26T18:50:52;7.3;;;4.2;;
74457;SDS011;62896;51.032;3.712;2024-02-26T18:54:12;7.3;;;4.2;;
74457;SDS011;62896;51.032;3.712;2024-02-26T18:57:32;7.3;;;4.2;;
74457;SDS011;62896;51.032;3.712;2024-02-26T19:00:52;7.3;;;4.2;;
74457;SDS011;62896;51.032;3.712;2024-02-26T19:04:12;7.3;;;4.2;;
74457;SDS011;62896;51.032;3.712;2024-02-26T19:07:32;6.7;;;4.4;;
74457;SDS011;62896;51.032;3.712;2024-02-26T19:10:52;6.7;;;4.4;;
74457;SDS011;62896;51.032;3.712;2024-02-26T19:14:12;6.7;;;4.4;;
74457;SDS011;62896;51.032;3.712;2024-02-26T19:17:32;6.7;;;4.4;;
74457;SDS011;62896;51.032;3.712;2024-02-26T19:20:52;6.7;;;4.4;;
74457;SDS011;62896;51.032;3.712;2024-02-26T19:24:12;6.7;;;4.4;;
74457;SDS011;62896;51.032;3.712;2024-02-26T19:27:32;6.7;;;4.4;;
74457;SDS011;62896;51.032;3.712;2024-02-26T19:30:52;6.7;;;4.4;;
74457;SDS011;62896;51.032;3.712;2024-02-26T19:34:12;8.5;;;4.6;;
74457;SDS011;62896;51.032;3.712;2024-02-26T19:37:32;8.5;;;4.6;;
74457;SDS011;62896;51.032;3.712;2024-02-26T19:40:52;8.5;;;4.6;;
74457;SDS011;62896;51.032;3.712;2024-02-26T19:44:12;8.5;;;4.6;;
74457;SDS011;62896;51.032;3.712;2024-02-26T19:47:32;8.5;;;4.6;;
74457;SDS011;62896;51.032;3.712;2024-02-26T19:50:52;8.5;;;4.6;;
74457;SDS011;62896;51.032;3.712;2024-02-26T19:54:12;8.5;;;4.6;;
74457;SDS011;62896;51.032;3.712;2024-02-26T19:57:32;8.2;;;4.8;;
74457;SDS011;62896;51.032;3.712;2024-02-26T20:00:52;8.2;;;4.8;;
74457;SDS011;62896;51.032;3.712;2024-02-26T20:04:12;8.2;;;4.8;;
74457;SDS011;62896;51.032;3.712;2024-02-26T20:07:32;8.2;;;4.8;;
74457;SDS011;62896;51.032;3.712;2024-02-26T20:10:52;8.2;;;4.8;;
74457;SDS011;62896;51.032;3.712;2024-02-26T20:14:12;8.2;;;4.8;;
74457;SDS011;62896;51.032;3.712;2024-02-26T20:17:32;8.2;;;4.8;;
74457;SDS011;62896;51.032;3.712;2024-02-26T20:20:52;8.2;;;4.8;;
74457;SDS011;62896;51.032;3.712;2024-02-26T20:24:12;10.5;;;4.3;;
74457;SDS011;62896;51.032;3.712;2024-02-26T20:27:32;10.5;;;4.3;;
74457;SDS011;62896;51.032;3.712;2024-02-26T20:30:52;10.5;;;4.3;;
74457;SDS011;62896;51.032;3.712;2024-02-26T20:34:12;10.5;;;4.3;;
74457;SDS011;62896;51.032;3.712;2024-02-26T20:37:32;10.5;;;4.3;;
74457;SDS011;62896;51.032;3.712;2024-02-26T20:40:53;10.5;;;4.3;;
74457;SDS011;62896;51.032;3.712;2024-02-26T20:44:12;10.5;;;4.3;;
74457;SDS011;62896;51.032;3.712;2024-02-26T20:47:32;8.8;;;4.3;;